Pentz, California
Current Conditions -  °F | °C
As of 9:16 AM on Friday 24 Oct 2014 (Local Time) from KOVE Reporting Station
Haze Haze  
Wind Chill: 54°   Ceiling: 100
Heat Index: 54°   Visibility: 4mi
Dew Point: 52°   Wind: 0mph
Humidity: 93%   Direction: NA
Pressure: 30"   Gusts: NA
Location:  39.5324°N, 121.648°W
Report Text: KOVE 241616Z AUTO 00000KT 4SM BR BKN001 12/11 A3000 RMK AO2 T01220111
Loading
Personal Weather Stations






























Interactive Weather Map
Tropical Storm Tracking
New forecast layout! Learn more

10-Day Weather Forecast

Advertisements
Track Severe Weather on mobile